New Orleans NAS, Louisiana
Current Conditions -  °F | °C
As of 12:55 AM on Sunday 26 Oct 2014 (Local Time) from KNBG Reporting Station
Clear Clear  
Wind Chill: 14°   Ceiling: Unl
Heat Index: 14°   Visibility: NA
Dew Point: 12°   Wind: 0mph
Humidity: 87%   Direction: NA
Pressure: 30.06"   Gusts: NA
Location:  29.83°N, 90.02°W
Report Text: KNBG 260555Z AUTO 00000KT CLR 14/12 A3006 RMK AO2 SLP178 T01390117 10178 20139 402670094 58010 TSNO $
Loading
Personal Weather Stations






























Interactive Weather Map New forecast layout! Learn more

10-Day Weather Forecast

Advertisements
Track Severe Weather on mobile